Pueblo West, Colorado
Current Conditions -  °F | °C
As of 7:53 PM on Thursday 27 Nov 2014 (Local Time) from KPUB Reporting Station
Clear Clear  
Wind Chill: 51°   Ceiling: Unl
Heat Index: 51°   Visibility: 10mi
Dew Point: 19°   Wind: 6mph
Humidity: 28%   Direction: 290°WNW
Pressure: 30.13"   Gusts: NA
Location:  38.4034°N, 104.782°W
Report Text: KPUB 280253Z AUTO 29005KT 10SM CLR 11/M07 A3013 RMK AO2 SLP207 T01061072 50002
Loading
Personal Weather Stations






























Interactive Weather Map New forecast layout! Learn more

10-Day Weather Forecast

Advertisements
Track Severe Weather on mobile